createdAt,value
2018-06-16T00:01:26.594Z,99.90
2018-06-16T00:03:54.796Z,99.90
2018-06-16T00:06:23.052Z,99.90
2018-06-16T00:08:51.238Z,99.90
2018-06-16T00:11:19.462Z,99.90
2018-06-16T00:13:47.652Z,99.90
2018-06-16T00:16:15.887Z,99.90
2018-06-16T00:18:44.150Z,99.90
2018-06-16T00:21:12.358Z,99.90
2018-06-16T00:23:40.582Z,99.90
2018-06-16T00:26:08.738Z,99.90
2018-06-16T00:28:36.894Z,99.90
2018-06-16T00:31:05.069Z,99.90
2018-06-16T00:33:33.230Z,99.90
2018-06-16T00:36:01.439Z,99.90
2018-06-16T00:38:29.625Z,99.90
2018-06-16T00:40:57.835Z,99.90
2018-06-16T00:43:26.019Z,99.90
2018-06-16T00:45:54.227Z,99.90
2018-06-16T00:48:22.413Z,99.90
2018-06-16T00:50:50.605Z,99.90
2018-06-16T00:53:18.809Z,99.90
2018-06-16T00:55:47.007Z,99.90
2018-06-16T00:58:15.232Z,99.90
2018-06-16T01:00:43.414Z,99.90
2018-06-16T01:05:39.567Z,99.90
2018-06-16T01:08:07.765Z,99.90
2018-06-16T01:10:35.978Z,99.90
2018-06-16T01:13:04.182Z,99.90
2018-06-16T01:15:32.387Z,99.90
2018-06-16T01:18:00.588Z,99.90
2018-06-16T01:20:28.849Z,99.90
2018-06-16T01:22:57.030Z,99.90
2018-06-16T01:27:53.194Z,99.90
2018-06-16T01:30:21.415Z,99.90
2018-06-16T01:32:49.606Z,99.90
2018-06-16T01:35:17.852Z,99.90
2018-06-16T01:37:46.063Z,99.90
2018-06-16T01:40:14.260Z,99.90
2018-06-16T01:42:42.463Z,99.90
2018-06-16T01:45:10.655Z,99.90
2018-06-16T01:47:38.866Z,99.90
2018-06-16T01:50:07.062Z,99.90
2018-06-16T01:52:35.286Z,99.90
2018-06-16T01:55:03.490Z,99.90
2018-06-16T01:57:31.659Z,99.90
2018-06-16T01:59:59.877Z,99.90
2018-06-16T02:02:28.052Z,99.90
2018-06-16T02:04:56.268Z,99.90
2018-06-16T02:07:24.437Z,99.90
2018-06-16T02:09:52.627Z,99.90
2018-06-16T02:12:20.803Z,99.90
2018-06-16T02:14:50.635Z,99.90
2018-06-16T02:17:18.864Z,99.90
2018-06-16T02:19:47.073Z,99.90
2018-06-16T02:22:15.259Z,99.90
2018-06-16T02:24:43.458Z,99.90
2018-06-16T02:27:11.644Z,99.90
2018-06-16T02:29:39.841Z,99.90
2018-06-16T02:32:08.035Z,99.90
2018-06-16T02:34:36.225Z,99.90
2018-06-16T02:37:04.464Z,99.90
2018-06-16T02:42:00.599Z,99.90
2018-06-16T02:44:28.786Z,99.90
2018-06-16T02:46:56.980Z,99.90
2018-06-16T02:49:25.190Z,99.90
2018-06-16T02:51:53.399Z,99.90
2018-06-16T02:56:49.590Z,99.90
2018-06-16T02:59:18.225Z,99.90
2018-06-16T03:01:46.438Z,99.90
2018-06-16T03:04:14.630Z,99.90
2018-06-16T03:06:42.824Z,99.90
2018-06-16T03:09:11.080Z,99.90
2018-06-16T03:11:39.423Z,99.90
2018-06-16T03:14:07.608Z,99.90
2018-06-16T03:16:35.815Z,99.90
2018-06-16T03:19:04.024Z,99.90
2018-06-16T03:21:32.212Z,99.90
2018-06-16T03:24:00.411Z,99.90
2018-06-16T03:26:28.578Z,99.90
2018-06-16T03:28:56.801Z,99.90
2018-06-16T03:31:26.602Z,99.90
2018-06-16T03:33:54.833Z,99.90
2018-06-16T03:36:23.016Z,99.90
2018-06-16T03:38:51.222Z,99.90
2018-06-16T03:41:19.417Z,99.90
2018-06-16T03:43:47.622Z,99.90
2018-06-16T03:46:15.837Z,99.90
2018-06-16T03:48:44.007Z,99.90
2018-06-16T03:51:12.230Z,99.90
2018-06-16T03:53:40.466Z,99.90
2018-06-16T03:56:09.515Z,99.90
2018-06-16T03:58:37.728Z,99.90
2018-06-16T04:01:05.975Z,99.90
2018-06-16T04:03:34.164Z,99.90
2018-06-16T04:06:02.357Z,99.90
2018-06-16T04:08:30.563Z,99.90
2018-06-16T04:10:58.755Z,99.90
2018-06-16T04:13:26.962Z,99.90
2018-06-16T04:15:55.196Z,99.90
2018-06-16T04:18:23.398Z,99.90
2018-06-16T04:20:51.567Z,99.90
2018-06-16T04:23:19.757Z,99.90
2018-06-16T04:25:47.994Z,99.90
2018-06-16T04:28:16.203Z,99.90
2018-06-16T04:30:44.465Z,99.90
2018-06-16T04:33:12.712Z,99.90
2018-06-16T04:35:40.902Z,99.90
2018-06-16T04:38:09.109Z,99.90
2018-06-16T04:40:37.363Z,99.90
2018-06-16T04:43:05.649Z,99.90
2018-06-16T04:45:33.924Z,99.90
2018-06-16T04:48:02.082Z,99.90
2018-06-16T04:50:30.258Z,99.90
2018-06-16T04:52:58.537Z,99.90
2018-06-16T04:55:26.747Z,99.90
2018-06-16T04:57:54.991Z,99.90
2018-06-16T05:00:23.230Z,99.90
2018-06-16T05:02:51.414Z,99.90
2018-06-16T05:05:19.622Z,99.90
2018-06-16T05:07:47.903Z,99.90
2018-06-16T05:10:16.115Z,99.90
2018-06-16T05:12:44.361Z,99.90
2018-06-16T05:15:12.568Z,99.90
2018-06-16T05:17:40.823Z,99.90
2018-06-16T05:20:09.108Z,99.90
2018-06-16T05:22:37.332Z,99.90
2018-06-16T05:25:05.612Z,99.90
2018-06-16T05:27:33.820Z,99.90
2018-06-16T05:30:02.001Z,99.90
2018-06-16T05:32:30.245Z,99.90
2018-06-16T05:34:58.446Z,99.90
2018-06-16T05:37:26.675Z,99.90
2018-06-16T05:39:55.129Z,99.90
2018-06-16T05:42:23.341Z,99.90
2018-06-16T05:44:51.565Z,99.90
2018-06-16T05:47:19.809Z,99.90
2018-06-16T05:49:47.995Z,99.90
2018-06-16T05:52:16.171Z,99.90
2018-06-16T05:54:44.362Z,99.90
2018-06-16T05:57:12.542Z,99.90
2018-06-16T05:59:40.752Z,99.90
2018-06-16T06:02:08.942Z,99.90
2018-06-16T06:04:37.214Z,99.90
2018-06-16T06:07:05.427Z,99.90
2018-06-16T06:09:33.603Z,99.90
2018-06-16T06:12:01.813Z,99.90
2018-06-16T06:14:30.011Z,99.90
2018-06-16T06:16:58.218Z,99.90
2018-06-16T06:19:26.426Z,99.90
2018-06-16T06:21:54.646Z,99.90
2018-06-16T06:24:22.873Z,99.90
2018-06-16T06:26:51.098Z,99.90
2018-06-16T06:29:19.290Z,99.90
2018-06-16T06:31:47.499Z,99.90
2018-06-16T06:34:15.750Z,99.90
2018-06-16T06:36:43.954Z,99.90
2018-06-16T06:39:12.234Z,99.90
2018-06-16T06:41:40.441Z,99.90
2018-06-16T06:46:36.653Z,99.90
2018-06-16T06:49:04.862Z,99.90
2018-06-16T06:51:33.071Z,99.90
2018-06-16T06:54:01.257Z,99.90
2018-06-16T06:56:29.519Z,99.90
2018-06-16T06:58:58.431Z,99.90
2018-06-16T07:01:26.626Z,99.90
2018-06-16T07:03:54.849Z,99.90
2018-06-16T07:06:23.068Z,99.90
2018-06-16T07:08:51.298Z,99.90
2018-06-16T07:11:19.514Z,99.90
2018-06-16T07:13:47.736Z,99.90
2018-06-16T07:16:15.882Z,99.60
2018-06-16T07:18:44.205Z,99.30
2018-06-16T07:21:12.395Z,99.60
2018-06-16T07:23:40.563Z,99.30
2018-06-16T07:26:08.728Z,99.40
2018-06-16T07:28:36.950Z,99.90
2018-06-16T07:31:05.164Z,99.70
2018-06-16T07:33:33.366Z,99.50
2018-06-16T07:36:01.541Z,99.30
2018-06-16T07:38:29.734Z,99.90
2018-06-16T07:40:57.940Z,99.90
2018-06-16T07:43:26.121Z,99.60
2018-06-16T07:45:54.317Z,99.10
2018-06-16T07:50:50.459Z,99.40
2018-06-16T07:55:46.559Z,98.80
2018-06-16T07:58:14.757Z,98.20
2018-06-16T08:00:42.962Z,98.80
2018-06-16T08:03:11.175Z,98.60
2018-06-16T08:05:39.655Z,98.40
2018-06-16T08:08:07.827Z,96.30
2018-06-16T08:10:36.035Z,98.10
2018-06-16T08:13:04.206Z,98.30
2018-06-16T08:15:32.408Z,98.00
2018-06-16T08:20:28.542Z,96.80
2018-06-16T08:25:24.720Z,96.30
2018-06-16T08:27:52.931Z,96.40
2018-06-16T08:30:21.110Z,95.30
2018-06-16T08:32:49.315Z,94.80
2018-06-16T08:35:17.488Z,93.40
2018-06-16T08:37:45.689Z,92.80
2018-06-16T08:40:13.968Z,93.00
2018-06-16T08:42:42.153Z,94.20
2018-06-16T08:45:10.427Z,94.20
2018-06-16T08:47:38.606Z,93.30
2018-06-16T08:50:06.815Z,93.60
2018-06-16T08:52:35.195Z,93.60
2018-06-16T08:55:03.374Z,93.10
2018-06-16T08:57:31.566Z,92.90
2018-06-16T08:59:59.763Z,92.70
2018-06-16T09:02:28.018Z,92.70
2018-06-16T09:04:56.218Z,93.60
2018-06-16T09:07:24.376Z,94.20
2018-06-16T09:12:20.936Z,92.40
2018-06-16T09:14:49.124Z,92.40
2018-06-16T09:17:17.471Z,92.80
2018-06-16T09:19:45.639Z,91.50
2018-06-16T09:22:13.970Z,91.30
2018-06-16T09:24:42.155Z,91.50
2018-06-16T09:27:10.386Z,90.80
2018-06-16T09:32:06.546Z,89.20
2018-06-16T09:37:02.727Z,88.70
2018-06-16T09:39:30.941Z,87.90
2018-06-16T09:41:59.193Z,87.40
2018-06-16T09:44:28.590Z,86.40
2018-06-16T09:46:56.829Z,88.50
2018-06-16T09:49:24.999Z,88.80
2018-06-16T09:51:53.190Z,90.10
2018-06-16T09:54:21.343Z,90.90
2018-06-16T09:56:49.595Z,88.90
2018-06-16T09:59:17.811Z,89.10
2018-06-16T10:01:45.958Z,88.20
2018-06-16T10:04:14.215Z,88.60
2018-06-16T10:09:10.858Z,89.20
2018-06-16T10:11:39.319Z,88.60
2018-06-16T10:14:07.727Z,87.00
2018-06-16T10:16:35.942Z,88.90
2018-06-16T10:19:04.140Z,88.40
2018-06-16T10:21:32.350Z,87.60
2018-06-16T10:26:28.577Z,87.00
2018-06-16T10:28:56.817Z,88.50
2018-06-16T10:31:24.951Z,87.60
2018-06-16T10:33:53.462Z,88.00
2018-06-16T10:36:21.707Z,84.40
2018-06-16T10:38:49.918Z,83.60
2018-06-16T10:41:18.101Z,84.50
2018-06-16T10:43:46.322Z,87.00
2018-06-16T10:46:14.477Z,84.90
2018-06-16T10:48:42.635Z,85.90
2018-06-16T10:51:10.842Z,85.50
2018-06-16T10:53:38.983Z,85.30
2018-06-16T10:56:07.234Z,87.70
2018-06-16T10:58:35.406Z,85.30
2018-06-16T11:01:04.515Z,85.50
2018-06-16T11:03:32.710Z,84.70
2018-06-16T11:06:00.900Z,84.90
2018-06-16T11:08:29.091Z,85.30
2018-06-16T11:10:57.338Z,86.70
2018-06-16T11:13:25.490Z,86.30
2018-06-16T11:15:53.832Z,85.90
2018-06-16T11:18:21.994Z,85.90
2018-06-16T11:20:50.223Z,85.00
2018-06-16T11:23:18.443Z,83.90
2018-06-16T11:25:46.594Z,86.30
2018-06-16T11:28:14.828Z,84.00
2018-06-16T11:30:42.999Z,83.00
2018-06-16T11:33:17.630Z,82.90
2018-06-16T11:35:45.856Z,81.50
2018-06-16T11:38:14.150Z,81.90
2018-06-16T11:40:42.474Z,82.60
2018-06-16T11:43:10.679Z,84.60
2018-06-16T11:45:38.887Z,82.60
2018-06-16T11:48:07.196Z,82.90
2018-06-16T11:50:35.398Z,83.20
2018-06-16T11:53:03.575Z,83.50
2018-06-16T11:55:31.815Z,84.20
2018-06-16T11:57:59.975Z,82.90
2018-06-16T12:00:28.164Z,82.40
2018-06-16T12:02:56.310Z,84.80
2018-06-16T12:05:24.458Z,82.30
2018-06-16T12:10:20.700Z,85.50
2018-06-16T12:12:48.812Z,81.40
2018-06-16T12:15:16.979Z,81.00
2018-06-16T12:17:45.124Z,81.50
2018-06-16T12:20:13.339Z,83.20
2018-06-16T12:22:41.482Z,84.20
2018-06-16T12:25:09.798Z,82.30
2018-06-16T12:27:37.990Z,82.00
2018-06-16T12:30:06.418Z,79.30
2018-06-16T12:32:34.623Z,85.70
2018-06-16T12:35:02.863Z,79.10
2018-06-16T12:37:31.090Z,81.70
2018-06-16T12:39:59.249Z,78.40
2018-06-16T12:42:27.462Z,77.20
2018-06-16T12:44:55.789Z,76.70
2018-06-16T12:47:23.946Z,78.70
2018-06-16T12:52:20.136Z,77.00
2018-06-16T12:54:48.325Z,76.70
2018-06-16T12:57:16.562Z,76.20
2018-06-16T12:59:44.728Z,76.80
2018-06-16T13:02:13.006Z,77.80
2018-06-16T13:04:50.993Z,82.00
2018-06-16T13:09:47.114Z,72.50
2018-06-16T13:12:15.343Z,72.50
2018-06-16T13:14:43.556Z,72.00
2018-06-16T13:17:11.764Z,73.00
2018-06-16T13:19:39.947Z,75.60
2018-06-16T13:22:08.124Z,71.90
2018-06-16T13:24:36.309Z,73.60
2018-06-16T13:27:04.598Z,73.50
2018-06-16T13:29:32.814Z,74.00
2018-06-16T13:32:01.086Z,72.80
2018-06-16T13:34:29.343Z,74.90
2018-06-16T13:36:57.623Z,72.60
2018-06-16T13:39:25.869Z,71.80
2018-06-16T13:41:54.086Z,72.50
2018-06-16T13:44:22.305Z,76.80
2018-06-16T13:46:50.522Z,76.60
2018-06-16T13:49:18.745Z,77.20
2018-06-16T13:51:46.911Z,74.10
2018-06-16T13:54:15.115Z,72.70
2018-06-16T13:56:43.384Z,74.10
2018-06-16T13:59:11.529Z,71.90
2018-06-16T14:04:07.646Z,72.00
2018-06-16T14:06:35.889Z,74.40
2018-06-16T14:09:06.242Z,74.20
2018-06-16T14:11:34.479Z,73.40
2018-06-16T14:14:02.632Z,74.00
2018-06-16T14:16:30.807Z,73.10
2018-06-16T14:18:59.015Z,75.30
2018-06-16T14:23:55.173Z,72.40
2018-06-16T14:26:23.331Z,72.20
2018-06-16T14:28:51.555Z,74.40
2018-06-16T14:31:19.774Z,72.00
2018-06-16T14:33:48.019Z,71.20
2018-06-16T14:36:16.291Z,74.20
2018-06-16T14:39:07.664Z,74.90
2018-06-16T14:41:35.857Z,72.30
2018-06-16T14:44:04.019Z,72.20
2018-06-16T14:46:32.271Z,71.50
2018-06-16T14:49:00.501Z,72.40
2018-06-16T14:51:28.651Z,72.10
2018-06-16T14:53:57.122Z,72.70
2018-06-16T14:56:25.471Z,72.00
2018-06-16T14:58:54.546Z,72.50
2018-06-16T15:01:22.734Z,71.60
2018-06-16T15:03:51.043Z,71.90
2018-06-16T15:06:19.286Z,73.10
2018-06-16T15:08:47.496Z,71.20
2018-06-16T15:11:15.661Z,70.30
2018-06-16T15:13:43.954Z,72.70
2018-06-16T15:16:12.193Z,72.90
2018-06-16T15:18:40.373Z,71.80
2018-06-16T15:21:08.575Z,70.20
2018-06-16T15:23:36.770Z,72.20
2018-06-16T15:26:04.970Z,72.70
2018-06-16T15:31:01.108Z,73.90
2018-06-16T15:35:57.254Z,73.40
2018-06-16T15:38:25.614Z,71.20
2018-06-16T15:40:53.805Z,71.40
2018-06-16T15:43:21.983Z,73.40
2018-06-16T15:45:50.328Z,71.00
2018-06-16T15:48:18.744Z,70.40
2018-06-16T15:50:46.902Z,70.70
2018-06-16T15:53:15.104Z,71.30
2018-06-16T15:55:43.297Z,70.00
2018-06-16T15:58:11.476Z,70.20
2018-06-16T16:00:39.662Z,71.20
2018-06-16T16:03:07.862Z,73.10
2018-06-16T16:05:36.086Z,71.60
2018-06-16T16:08:04.430Z,71.90
2018-06-16T16:10:32.642Z,71.20
2018-06-16T16:13:00.820Z,70.60
2018-06-16T16:15:29.090Z,68.90
2018-06-16T16:17:57.307Z,69.50
2018-06-16T16:20:25.596Z,68.80
2018-06-16T16:22:53.829Z,67.80
2018-06-16T16:25:22.135Z,67.40
2018-06-16T16:27:50.461Z,66.40
2018-06-16T16:30:18.626Z,66.60
2018-06-16T16:32:46.815Z,68.40
2018-06-16T16:35:15.015Z,67.50
2018-06-16T16:37:43.224Z,66.40
2018-06-16T16:40:11.512Z,66.50
2018-06-16T16:42:39.663Z,65.20
2018-06-16T16:45:08.097Z,63.70
2018-06-16T16:47:36.342Z,64.70
2018-06-16T16:50:04.523Z,65.30
2018-06-16T16:52:32.718Z,65.50
2018-06-16T16:57:28.845Z,64.80
2018-06-16T16:59:57.007Z,63.70
2018-06-16T17:02:25.206Z,63.80
2018-06-16T17:04:53.404Z,62.90
2018-06-16T17:07:21.552Z,62.20
2018-06-16T17:09:49.740Z,61.80
2018-06-16T17:12:17.910Z,61.70
2018-06-16T17:14:46.078Z,60.70
2018-06-16T17:17:14.284Z,62.00
2018-06-16T17:19:42.459Z,61.70
2018-06-16T17:22:10.714Z,61.80
2018-06-16T17:24:38.911Z,62.30
2018-06-16T17:27:07.095Z,60.90
2018-06-16T17:29:35.299Z,61.60
2018-06-16T17:32:03.507Z,62.70
2018-06-16T17:34:31.675Z,61.60
2018-06-16T17:36:59.887Z,62.60
2018-06-16T17:39:28.111Z,63.00
2018-06-16T17:41:56.283Z,64.40
2018-06-16T17:44:24.505Z,64.10
2018-06-16T17:46:52.655Z,64.20
2018-06-16T17:49:20.845Z,64.30
2018-06-16T17:51:49.062Z,64.80
2018-06-16T17:54:17.288Z,65.60
2018-06-16T17:56:47.571Z,68.50
2018-06-16T17:59:15.738Z,70.70
2018-06-16T18:01:43.887Z,72.30
2018-06-16T18:04:12.063Z,73.70
2018-06-16T18:06:40.257Z,75.00
2018-06-16T18:09:10.177Z,76.30
2018-06-16T18:11:38.495Z,77.50
2018-06-16T18:14:06.830Z,78.90
2018-06-16T18:16:35.078Z,80.10
2018-06-16T18:19:03.247Z,81.30
2018-06-16T18:21:31.804Z,81.50
2018-06-16T18:24:00.039Z,81.90
2018-06-16T18:26:28.226Z,83.00
2018-06-16T18:28:56.454Z,83.40
2018-06-16T18:31:24.701Z,83.90
2018-06-16T18:33:52.874Z,84.30
2018-06-16T18:36:21.060Z,85.30
2018-06-16T18:38:49.248Z,86.10
2018-06-16T18:41:17.452Z,86.30
2018-06-16T18:43:45.679Z,86.60
2018-06-16T18:46:13.854Z,87.10
2018-06-16T18:48:42.047Z,87.50
2018-06-16T18:51:10.260Z,88.30
2018-06-16T18:53:38.449Z,88.80
2018-06-16T18:58:34.577Z,90.20
2018-06-16T19:01:02.757Z,89.80
2018-06-16T19:03:30.923Z,90.10
2018-06-16T19:05:59.295Z,90.00
2018-06-16T19:08:27.483Z,90.40
2018-06-16T19:10:55.730Z,91.00
2018-06-16T19:13:23.871Z,91.70
2018-06-16T19:15:52.088Z,91.70
2018-06-16T19:18:20.247Z,91.50
2018-06-16T19:20:48.601Z,92.00
2018-06-16T19:23:16.892Z,92.10
2018-06-16T19:28:13.038Z,92.40
2018-06-16T19:30:41.235Z,92.60
2018-06-16T19:33:09.456Z,92.70
2018-06-16T19:35:37.615Z,92.70
2018-06-16T19:38:05.820Z,92.90
2018-06-16T19:43:01.927Z,93.30
2018-06-16T19:45:30.087Z,93.30
2018-06-16T19:47:58.268Z,93.30
2018-06-16T19:50:26.422Z,93.20
2018-06-16T19:52:54.594Z,93.40
2018-06-16T19:55:22.766Z,93.70
2018-06-16T19:57:51.214Z,93.90
2018-06-16T20:00:19.427Z,94.00
2018-06-16T20:02:47.648Z,94.00
2018-06-16T20:05:15.851Z,95.10
2018-06-16T20:07:44.038Z,94.80
2018-06-16T20:10:12.251Z,95.60
2018-06-16T20:12:40.527Z,96.40
2018-06-16T20:15:08.682Z,96.40
2018-06-16T20:17:36.850Z,96.00
2018-06-16T20:20:07.090Z,96.10
2018-06-16T20:22:35.310Z,95.80
2018-06-16T20:25:03.777Z,95.40
2018-06-16T20:27:31.945Z,95.80
2018-06-16T20:32:28.051Z,95.70
2018-06-16T20:34:56.243Z,95.60
2018-06-16T20:37:24.485Z,95.80
2018-06-16T20:39:52.730Z,96.30
2018-06-16T20:42:20.999Z,96.70
2018-06-16T20:44:49.255Z,96.70
2018-06-16T20:47:17.516Z,96.90
2018-06-16T20:49:45.783Z,97.00
2018-06-16T20:52:14.019Z,97.10
2018-06-16T20:54:42.320Z,97.20
2018-06-16T20:57:10.452Z,97.40
2018-06-16T20:59:39.664Z,97.40
2018-06-16T21:02:07.809Z,97.30
2018-06-16T21:04:36.019Z,97.20
2018-06-16T21:07:04.214Z,97.40
2018-06-16T21:09:32.423Z,97.60
2018-06-16T21:14:28.578Z,97.60
2018-06-16T21:19:24.892Z,98.10
2018-06-16T21:21:53.079Z,98.20
2018-06-16T21:24:21.271Z,98.40
2018-06-16T21:29:17.370Z,99.00
2018-06-16T21:31:45.540Z,99.10
2018-06-16T21:34:13.741Z,99.10
2018-06-16T21:36:41.878Z,99.30
2018-06-16T21:39:10.718Z,99.50
2018-06-16T21:41:39.024Z,99.40
2018-06-16T21:49:07.576Z,99.60
2018-06-16T21:51:35.727Z,99.50
2018-06-16T21:54:03.968Z,99.70
2018-06-16T21:56:32.128Z,99.80
2018-06-16T21:59:00.286Z,99.90
2018-06-16T22:01:30.818Z,99.80
2018-06-16T22:03:59.371Z,99.80
2018-06-16T22:06:27.532Z,99.90
2018-06-16T22:08:55.704Z,99.90
2018-06-16T22:11:23.858Z,99.90
2018-06-16T22:13:52.202Z,99.90
2018-06-16T22:16:20.352Z,99.90
2018-06-16T22:18:48.547Z,99.90
2018-06-16T22:21:16.690Z,99.90
2018-06-16T22:23:44.910Z,99.90
2018-06-16T22:26:13.082Z,99.90
2018-06-16T22:28:45.100Z,99.90
2018-06-16T22:31:13.317Z,99.90
2018-06-16T22:33:41.470Z,99.90
2018-06-16T22:36:09.645Z,99.90
2018-06-16T22:38:37.778Z,99.90
2018-06-16T22:41:05.955Z,99.90
2018-06-16T22:43:34.114Z,99.90
2018-06-16T22:46:02.292Z,99.90
2018-06-16T22:48:30.548Z,99.90
2018-06-16T22:50:58.706Z,99.90
2018-06-16T22:53:27.132Z,99.90
2018-06-16T22:55:55.283Z,99.90
2018-06-16T22:58:23.555Z,99.90
2018-06-16T23:03:19.690Z,99.90
2018-06-16T23:05:47.878Z,99.90
2018-06-16T23:08:16.430Z,99.90
2018-06-16T23:10:44.624Z,99.90
2018-06-16T23:13:12.827Z,99.90
2018-06-16T23:15:40.992Z,99.90
2018-06-16T23:18:09.160Z,99.90
2018-06-16T23:20:37.339Z,99.90
2018-06-16T23:23:05.491Z,99.90
2018-06-16T23:25:33.700Z,99.90
2018-06-16T23:28:01.869Z,99.90
2018-06-16T23:30:30.091Z,99.90
2018-06-16T23:32:59.510Z,99.90
2018-06-16T23:35:27.685Z,99.90
2018-06-16T23:37:55.834Z,99.90
2018-06-16T23:40:24.058Z,99.90
2018-06-16T23:42:52.200Z,99.90
2018-06-16T23:45:20.381Z,99.90
2018-06-16T23:47:48.587Z,99.90
2018-06-16T23:50:16.759Z,99.90
2018-06-16T23:52:44.907Z,99.90
2018-06-16T23:55:13.071Z,99.90
2018-06-16T23:57:41.327Z,99.90
